createdAt,value
2019-04-20T00:00:59.587Z,4.07
2019-04-20T00:03:35.622Z,4.53
2019-04-20T00:05:59.320Z,4.00
2019-04-20T00:08:31.227Z,4.20
2019-04-20T00:11:07.465Z,4.30
2019-04-20T00:13:38.426Z,3.97
2019-04-20T00:15:57.869Z,5.00
2019-04-20T00:18:38.195Z,4.10
2019-04-20T00:21:03.858Z,4.63
2019-04-20T00:23:40.445Z,4.53
2019-04-20T00:26:26.570Z,3.93
2019-04-20T00:29:07.118Z,3.90
2019-04-20T00:31:29.781Z,4.47
2019-04-20T00:33:57.511Z,4.40
2019-04-20T00:36:18.037Z,4.13
2019-04-20T00:38:53.025Z,4.80
2019-04-20T00:41:18.893Z,4.63
2019-04-20T00:43:47.168Z,4.33
2019-04-20T00:46:23.081Z,4.40
2019-04-20T00:48:53.647Z,4.07
2019-04-20T00:51:31.418Z,4.40
2019-04-20T00:53:49.086Z,4.40
2019-04-20T00:56:16.161Z,4.47
2019-04-20T00:58:58.186Z,4.30
2019-04-20T01:01:37.788Z,4.87
2019-04-20T01:04:07.126Z,4.43
2019-04-20T01:06:38.304Z,4.90
2019-04-20T01:09:09.946Z,4.77
2019-04-20T01:11:42.211Z,4.70
2019-04-20T01:14:12.466Z,4.70
2019-04-20T01:16:47.290Z,5.10
2019-04-20T01:19:08.325Z,4.73
2019-04-20T01:21:37.997Z,4.47
2019-04-20T01:24:08.873Z,4.43
2019-04-20T01:26:43.729Z,5.20
2019-04-20T01:29:19.192Z,4.77
2019-04-20T01:31:53.104Z,5.03
2019-04-20T01:34:23.465Z,5.33
2019-04-20T01:36:55.713Z,5.70
2019-04-20T01:39:18.573Z,5.23
2019-04-20T01:41:37.197Z,5.43
2019-04-20T01:44:07.048Z,5.17
2019-04-20T01:46:39.147Z,5.70
2019-04-20T01:49:11.596Z,5.30
2019-04-20T01:51:47.070Z,5.17
2019-04-20T01:54:29.725Z,5.23
2019-04-20T01:56:53.380Z,5.23
2019-04-20T01:59:30.927Z,5.40
2019-04-20T02:02:04.427Z,5.50
2019-04-20T02:04:34.406Z,5.30
2019-04-20T02:07:03.008Z,5.33
2019-04-20T02:09:32.587Z,4.70
2019-04-20T02:12:05.912Z,5.57
2019-04-20T02:14:40.509Z,5.37
2019-04-20T02:17:11.735Z,5.70
2019-04-20T02:19:43.082Z,5.33
2019-04-20T02:22:13.706Z,5.03
2019-04-20T02:24:29.914Z,5.37
2019-04-20T02:26:58.306Z,5.30
2019-04-20T02:30:07.569Z,5.50
2019-04-20T02:32:35.904Z,5.20
2019-04-20T02:37:38.184Z,5.47
2019-04-20T02:40:00.328Z,5.37
2019-04-20T02:42:34.048Z,5.77
2019-04-20T02:45:14.779Z,5.53
2019-04-20T02:47:46.049Z,5.57
2019-04-20T02:49:56.689Z,5.80
2019-04-20T02:55:02.087Z,5.33
2019-04-20T02:57:40.329Z,6.30
2019-04-20T03:02:16.979Z,5.60
2019-04-20T03:04:37.028Z,5.97
2019-04-20T03:07:14.981Z,5.47
2019-04-20T03:09:52.634Z,5.70
2019-04-20T03:12:24.949Z,6.30
2019-04-20T03:14:44.986Z,6.20
2019-04-20T03:17:21.703Z,5.80
2019-04-20T03:19:46.411Z,5.90
2019-04-20T03:22:24.620Z,6.40
2019-04-20T03:24:56.578Z,6.10
2019-04-20T03:27:21.181Z,5.77
2019-04-20T03:29:52.687Z,5.50
2019-04-20T03:35:10.120Z,5.83
2019-04-20T03:37:34.660Z,5.87
2019-04-20T03:39:48.849Z,6.07
2019-04-20T03:42:07.169Z,6.53
2019-04-20T03:44:37.536Z,6.13
2019-04-20T03:47:10.299Z,6.93
2019-04-20T03:50:02.668Z,5.77
2019-04-20T03:52:27.438Z,7.30
2019-04-20T03:55:10.292Z,6.70
2019-04-20T03:57:45.841Z,7.30
2019-04-20T04:00:24.906Z,7.10
2019-04-20T04:03:01.485Z,7.03
2019-04-20T04:05:24.996Z,6.87
2019-04-20T04:07:40.263Z,6.97
2019-04-20T04:10:23.603Z,6.97
2019-04-20T04:13:09.607Z,7.07
2019-04-20T04:15:44.247Z,7.37
2019-04-20T04:18:17.816Z,8.10
2019-04-20T04:20:49.242Z,7.33
2019-04-20T04:23:32.332Z,7.03
2019-04-20T04:26:00.828Z,7.57
2019-04-20T04:28:28.390Z,7.43
2019-04-20T04:31:04.119Z,7.30
2019-04-20T04:35:59.178Z,7.40
2019-04-20T04:38:36.301Z,7.50
2019-04-20T04:41:09.689Z,7.40
2019-04-20T04:43:35.960Z,7.93
2019-04-20T04:45:40.688Z,8.17
2019-04-20T04:48:14.847Z,8.03
2019-04-20T04:50:47.504Z,7.97
2019-04-20T04:53:17.173Z,7.53
2019-04-20T04:55:48.323Z,7.87
2019-04-20T04:58:08.812Z,8.23
2019-04-20T05:00:38.031Z,7.90
2019-04-20T05:03:28.527Z,7.97
2019-04-20T05:06:03.526Z,7.53
2019-04-20T05:08:23.438Z,8.03
2019-04-20T05:10:43.661Z,7.00
2019-04-20T05:13:12.010Z,7.53
2019-04-20T05:15:53.914Z,7.70
2019-04-20T05:18:34.635Z,7.63
2019-04-20T05:20:58.902Z,7.37
2019-04-20T05:23:35.137Z,7.17
2019-04-20T05:26:14.547Z,7.33
2019-04-20T05:28:36.845Z,7.47
2019-04-20T05:31:00.983Z,7.57
2019-04-20T05:33:42.537Z,7.57
2019-04-20T05:36:19.173Z,7.47
2019-04-20T05:38:48.149Z,7.77
2019-04-20T05:41:11.427Z,7.30
2019-04-20T05:43:52.233Z,7.67
2019-04-20T05:46:27.834Z,7.80
2019-04-20T05:48:56.186Z,7.77
2019-04-20T05:51:33.445Z,7.33
2019-04-20T05:54:00.504Z,8.03
2019-04-20T05:56:31.656Z,7.80
2019-04-20T05:58:56.422Z,7.90
2019-04-20T06:01:25.916Z,7.83
2019-04-20T06:03:56.793Z,7.60
2019-04-20T06:06:27.362Z,7.93
2019-04-20T06:08:59.176Z,7.93
2019-04-20T06:11:25.742Z,7.40
2019-04-20T06:13:48.664Z,7.13
2019-04-20T06:16:45.775Z,7.53
2019-04-20T06:19:24.221Z,7.33
2019-04-20T06:21:50.370Z,7.20
2019-04-20T06:24:26.523Z,7.43
2019-04-20T06:29:18.521Z,7.17
2019-04-20T06:31:53.459Z,7.43
2019-04-20T06:34:36.625Z,7.70
2019-04-20T06:37:06.886Z,8.00
2019-04-20T06:39:32.627Z,7.87
2019-04-20T06:42:10.912Z,7.73
2019-04-20T06:44:31.748Z,8.00
2019-04-20T06:52:15.407Z,7.53
2019-04-20T06:54:43.186Z,7.33
2019-04-20T06:57:10.187Z,7.80
2019-04-20T06:59:43.022Z,7.90
2019-04-20T07:02:16.890Z,7.90
2019-04-20T07:04:58.091Z,7.83
2019-04-20T07:07:14.142Z,8.10
2019-04-20T07:09:52.925Z,7.70
2019-04-20T07:12:06.687Z,7.77
2019-04-20T07:14:33.999Z,7.60
2019-04-20T07:17:24.859Z,7.87
2019-04-20T07:19:46.624Z,7.87
2019-04-20T07:22:31.748Z,7.60
2019-04-20T07:27:24.383Z,7.33
2019-04-20T07:29:58.478Z,7.40
2019-04-20T07:32:16.507Z,7.37
2019-04-20T07:34:51.542Z,7.00
2019-04-20T07:37:51.836Z,6.70
2019-04-20T07:39:58.913Z,6.90
2019-04-20T07:42:29.359Z,6.30
2019-04-20T07:45:01.580Z,6.30
2019-04-20T07:47:32.480Z,6.17
2019-04-20T07:49:52.708Z,6.17
2019-04-20T07:52:04.025Z,6.03
2019-04-20T07:55:12.405Z,6.20
2019-04-20T07:57:22.592Z,6.30
2019-04-20T07:59:52.809Z,5.33
2019-04-20T08:02:40.534Z,5.67
2019-04-20T08:05:09.393Z,5.90
2019-04-20T08:07:35.134Z,6.30
2019-04-20T08:10:00.360Z,5.93
2019-04-20T08:15:36.393Z,5.60
2019-04-20T08:17:56.473Z,5.97
2019-04-20T08:20:19.990Z,6.30
2019-04-20T08:22:56.959Z,6.37
2019-04-20T08:25:16.717Z,5.80
2019-04-20T08:27:50.965Z,5.77
2019-04-20T08:30:52.593Z,5.75
2019-04-20T08:33:28.479Z,5.20
2019-04-20T08:36:02.813Z,5.20
2019-04-20T08:39:00.098Z,5.35
2019-04-20T08:40:59.679Z,4.90
2019-04-20T08:45:58.688Z,5.33
2019-04-20T08:48:28.641Z,5.28
2019-04-20T08:51:02.543Z,5.50
2019-04-20T08:53:30.797Z,4.78
2019-04-20T08:55:49.117Z,4.90
2019-04-20T08:58:09.164Z,5.25
2019-04-20T09:00:42.906Z,5.15
2019-04-20T09:03:17.092Z,4.75
2019-04-20T09:05:49.001Z,4.92
2019-04-20T09:08:16.244Z,4.40
2019-04-20T09:10:55.307Z,5.12
2019-04-20T09:13:19.797Z,5.30
2019-04-20T09:15:38.474Z,4.92
2019-04-20T09:18:20.432Z,4.85
2019-04-20T09:20:49.867Z,5.40
2019-04-20T09:23:28.662Z,5.05
2019-04-20T09:28:26.993Z,4.90
2019-04-20T09:31:13.216Z,4.50
2019-04-20T09:33:51.356Z,4.75
2019-04-20T09:36:26.634Z,4.78
2019-04-20T09:39:08.648Z,4.58
2019-04-20T09:42:00.073Z,4.65
2019-04-20T09:44:17.774Z,4.85
2019-04-20T09:46:52.294Z,4.95
2019-04-20T09:49:28.572Z,6.22
2019-04-20T09:52:01.415Z,4.12
2019-04-20T09:54:36.007Z,5.47
2019-04-20T09:57:11.824Z,4.78
2019-04-20T09:59:33.169Z,5.47
2019-04-20T10:01:54.641Z,4.15
2019-04-20T10:04:17.523Z,5.00
2019-04-20T10:06:45.762Z,3.92
2019-04-20T10:09:13.969Z,4.78
2019-04-20T10:11:44.207Z,4.47
2019-04-20T10:14:12.388Z,4.35
2019-04-20T10:16:42.013Z,4.55
2019-04-20T10:19:11.881Z,4.10
2019-04-20T10:21:41.565Z,4.37
2019-04-20T10:24:10.610Z,5.12
2019-04-20T10:26:39.035Z,4.75
2019-04-20T10:29:07.936Z,5.10
2019-04-20T10:31:42.631Z,4.58
2019-04-20T10:34:07.401Z,4.95
2019-04-20T10:36:41.631Z,4.92
2019-04-20T10:39:10.822Z,5.20
2019-04-20T10:41:46.965Z,5.30
2019-04-20T10:44:09.347Z,5.30
2019-04-20T10:46:38.712Z,5.22
2019-04-20T10:49:08.325Z,5.30
2019-04-20T10:51:37.806Z,5.58
2019-04-20T10:54:06.687Z,4.92
2019-04-20T10:56:35.187Z,5.47
2019-04-20T10:59:03.489Z,4.70
2019-04-20T11:01:31.746Z,5.22
2019-04-20T11:04:00.710Z,5.03
2019-04-20T11:06:29.518Z,4.97
2019-04-20T11:08:58.535Z,5.17
2019-04-20T11:11:29.157Z,5.05
2019-04-20T11:14:00.772Z,5.22
2019-04-20T11:16:26.737Z,5.00
2019-04-20T11:18:55.575Z,4.53
2019-04-20T11:21:24.673Z,4.75
2019-04-20T11:23:54.253Z,4.45
2019-04-20T11:26:22.686Z,4.58
2019-04-20T11:28:50.862Z,4.85
2019-04-20T11:31:20.053Z,5.47
2019-04-20T11:33:48.319Z,5.05
2019-04-20T11:36:17.121Z,4.67
2019-04-20T11:38:46.987Z,4.60
2019-04-20T11:41:21.443Z,4.72
2019-04-20T11:43:45.200Z,4.67
2019-04-20T11:46:14.529Z,4.45
2019-04-20T11:48:43.497Z,4.58
2019-04-20T11:51:11.766Z,4.33
2019-04-20T11:53:40.447Z,4.95
2019-04-20T11:56:14.577Z,4.55
2019-04-20T11:58:39.078Z,4.92
2019-04-20T12:01:30.193Z,4.70
2019-04-20T12:04:01.685Z,5.00
2019-04-20T12:06:26.389Z,4.37
2019-04-20T12:08:54.945Z,4.77
2019-04-20T12:11:34.808Z,5.30
2019-04-20T12:13:54.404Z,4.90
2019-04-20T12:16:23.605Z,4.83
2019-04-20T12:18:52.478Z,4.50
2019-04-20T12:21:21.145Z,4.20
2019-04-20T12:23:49.364Z,4.80
2019-04-20T12:26:18.583Z,4.23
2019-04-20T12:28:47.586Z,4.50
2019-04-20T12:31:20.489Z,4.30
2019-04-20T12:33:46.512Z,4.23
2019-04-20T12:36:16.229Z,4.47
2019-04-20T12:38:46.141Z,3.87
2019-04-20T12:41:16.158Z,4.00
2019-04-20T12:43:45.695Z,4.20
2019-04-20T12:46:17.865Z,4.10
2019-04-20T12:48:44.214Z,4.13
2019-04-20T12:51:13.377Z,4.20
2019-04-20T12:53:42.603Z,4.20
2019-04-20T12:56:12.647Z,3.83
2019-04-20T12:58:43.408Z,4.20
2019-04-20T13:01:12.183Z,4.43
2019-04-20T13:03:41.557Z,4.07
2019-04-20T13:06:10.333Z,3.80
2019-04-20T13:08:44.104Z,4.30
2019-04-20T13:11:16.714Z,3.87
2019-04-20T13:13:58.646Z,4.00
2019-04-20T13:16:32.346Z,4.20
2019-04-20T13:19:03.384Z,3.90
2019-04-20T13:21:32.423Z,4.17
2019-04-20T13:24:00.948Z,3.80
2019-04-20T13:26:29.324Z,4.20
2019-04-20T13:28:57.561Z,4.40
2019-04-20T13:31:26.131Z,4.47
2019-04-20T13:33:54.933Z,4.00
2019-04-20T13:36:24.164Z,4.30
2019-04-20T13:38:53.060Z,4.00
2019-04-20T13:41:24.004Z,4.10
2019-04-20T13:43:55.715Z,4.17
2019-04-20T13:46:22.917Z,3.47
2019-04-20T13:48:51.311Z,3.72
2019-04-20T13:51:20.745Z,4.15
2019-04-20T13:53:51.020Z,3.65
2019-04-20T13:56:21.612Z,3.93
2019-04-20T13:58:52.031Z,3.87
2019-04-20T14:01:31.011Z,3.83
2019-04-20T14:04:13.528Z,3.98
2019-04-20T14:06:43.666Z,4.10
2019-04-20T14:09:11.966Z,3.85
2019-04-20T14:11:41.406Z,4.87
2019-04-20T14:14:10.832Z,4.00
2019-04-20T14:16:39.140Z,4.20
2019-04-20T14:19:07.345Z,3.80
2019-04-20T14:21:36.390Z,4.17
2019-04-20T14:24:06.566Z,3.85
2019-04-20T14:26:38.584Z,4.53
2019-04-20T14:29:05.128Z,4.35
2019-04-20T14:31:33.973Z,4.03
2019-04-20T14:34:04.650Z,3.50
2019-04-20T14:36:33.182Z,3.90
2019-04-20T14:39:02.434Z,4.03
2019-04-20T14:41:30.753Z,3.52
2019-04-20T14:43:58.935Z,3.90
2019-04-20T14:46:27.923Z,3.85
2019-04-20T14:48:56.678Z,3.90
2019-04-20T14:51:25.800Z,4.08
2019-04-20T14:53:54.121Z,3.70
2019-04-20T14:56:23.449Z,4.20
2019-04-20T14:58:53.646Z,4.17
2019-04-20T15:01:32.566Z,3.65
2019-04-20T15:04:06.854Z,4.40
2019-04-20T15:06:34.625Z,4.10
2019-04-20T15:09:02.974Z,3.92
2019-04-20T15:11:32.543Z,4.03
2019-04-20T15:14:00.898Z,3.98
2019-04-20T15:16:29.103Z,3.87
2019-04-20T15:18:59.901Z,3.65
2019-04-20T15:21:33.562Z,4.17
2019-04-20T15:24:01.902Z,3.87
2019-04-20T15:26:30.715Z,3.67
2019-04-20T15:28:59.998Z,3.92
2019-04-20T15:31:28.338Z,3.83
2019-04-20T15:33:57.050Z,3.90
2019-04-20T15:36:26.284Z,4.10
2019-04-20T15:38:54.476Z,3.85
2019-04-20T15:41:23.162Z,4.35
2019-04-20T15:43:51.529Z,4.17
2019-04-20T15:46:19.710Z,4.12
2019-04-20T15:48:48.113Z,4.05
2019-04-20T15:51:17.324Z,3.98
2019-04-20T15:53:47.249Z,3.40
2019-04-20T15:56:16.585Z,3.60
2019-04-20T15:58:46.138Z,4.78
2019-04-20T16:01:16.354Z,4.03
2019-04-20T16:03:55.341Z,4.03
2019-04-20T16:06:23.652Z,4.33
2019-04-20T16:08:54.477Z,4.10
2019-04-20T16:11:23.090Z,4.03
2019-04-20T16:13:53.870Z,3.90
2019-04-20T16:16:21.786Z,3.90
2019-04-20T16:18:50.715Z,4.10
2019-04-20T16:21:24.006Z,4.10
2019-04-20T16:23:50.730Z,3.97
2019-04-20T16:26:33.528Z,4.43
2019-04-20T16:29:01.962Z,4.17
2019-04-20T16:31:30.880Z,4.13
2019-04-20T16:33:59.582Z,4.23
2019-04-20T16:36:28.444Z,3.80
2019-04-20T16:38:57.401Z,3.77
2019-04-20T16:41:26.427Z,3.80
2019-04-20T16:43:55.402Z,4.13
2019-04-20T16:46:25.672Z,4.60
2019-04-20T16:48:55.025Z,4.50
2019-04-20T16:51:23.353Z,3.80
2019-04-20T16:53:53.850Z,4.20
2019-04-20T16:56:22.426Z,4.80
2019-04-20T16:58:54.759Z,4.83
2019-04-20T17:01:21.555Z,4.10
2019-04-20T17:03:58.815Z,4.80
2019-04-20T17:06:20.560Z,4.30
2019-04-20T17:08:49.406Z,3.93
2019-04-20T17:11:18.164Z,4.07
2019-04-20T17:13:50.057Z,3.90
2019-04-20T17:16:17.534Z,4.33
2019-04-20T17:18:49.795Z,4.47
2019-04-20T17:21:23.210Z,4.90
2019-04-20T17:23:49.170Z,5.30
2019-04-20T17:26:19.265Z,5.23
2019-04-20T17:28:58.062Z,5.67
2019-04-20T17:31:33.775Z,5.90
2019-04-20T17:34:17.197Z,5.43
2019-04-20T17:36:35.373Z,5.67
2019-04-20T17:39:08.063Z,6.00
2019-04-20T17:41:48.857Z,5.20
2019-04-20T17:44:20.835Z,5.30
2019-04-20T17:46:45.167Z,5.50
2019-04-20T17:49:16.973Z,5.50
2019-04-20T17:51:59.242Z,5.83
2019-04-20T17:54:11.058Z,7.63
2019-04-20T17:56:42.385Z,6.67
2019-04-20T17:59:10.726Z,5.67
2019-04-20T18:02:14.526Z,6.03
2019-04-20T18:05:02.459Z,6.33
2019-04-20T18:07:31.214Z,5.60
2019-04-20T18:09:56.540Z,5.30
2019-04-20T18:12:14.174Z,5.13
2019-04-20T18:14:51.675Z,5.67
2019-04-20T18:17:32.653Z,5.83
2019-04-20T18:20:03.106Z,5.87
2019-04-20T18:22:31.839Z,5.03
2019-04-20T18:25:20.894Z,5.70
2019-04-20T18:27:45.583Z,5.27
2019-04-20T18:30:19.135Z,5.50
2019-04-20T18:32:36.005Z,5.20
2019-04-20T18:35:18.193Z,5.80
2019-04-20T18:37:54.237Z,5.20
2019-04-20T18:40:29.138Z,6.30
2019-04-20T18:42:55.914Z,5.50
2019-04-20T18:45:29.661Z,5.63
2019-04-20T18:48:06.570Z,6.00
2019-04-20T18:50:26.600Z,5.60
2019-04-20T18:52:47.828Z,5.60
2019-04-20T18:55:27.525Z,5.90
2019-04-20T18:57:49.063Z,5.53
2019-04-20T19:00:27.069Z,5.53
2019-04-20T19:02:53.864Z,5.77
2019-04-20T19:05:19.982Z,5.50
2019-04-20T19:07:57.776Z,5.43
2019-04-20T19:10:25.730Z,5.10
2019-04-20T19:13:05.997Z,5.50
2019-04-20T19:15:57.812Z,5.13
2019-04-20T19:18:26.067Z,5.77
2019-04-20T19:20:45.920Z,5.70
2019-04-20T19:23:14.760Z,5.87
2019-04-20T19:25:44.229Z,6.33
2019-04-20T19:28:14.546Z,5.83
2019-04-20T19:30:50.193Z,5.83
2019-04-20T19:33:27.669Z,6.13
2019-04-20T19:35:55.187Z,6.10
2019-04-20T19:38:20.681Z,6.30
2019-04-20T19:40:54.584Z,6.33
2019-04-20T19:43:23.418Z,5.90
2019-04-20T19:46:25.677Z,6.00
2019-04-20T19:48:28.150Z,6.60
2019-04-20T19:51:06.859Z,6.73
2019-04-20T19:53:39.479Z,6.40
2019-04-20T19:55:59.113Z,6.50
2019-04-20T19:58:28.060Z,6.60
2019-04-20T20:00:55.812Z,7.33
2019-04-20T20:03:23.734Z,7.20
2019-04-20T20:05:54.174Z,6.63
2019-04-20T20:08:26.238Z,7.17
2019-04-20T20:10:52.637Z,7.20
2019-04-20T20:13:24.934Z,7.50
2019-04-20T20:15:57.440Z,7.30
2019-04-20T20:18:35.507Z,8.10
2019-04-20T20:21:04.697Z,7.60
2019-04-20T20:23:20.759Z,8.10
2019-04-20T20:25:50.079Z,8.10
2019-04-20T20:28:32.286Z,8.13
2019-04-20T20:31:02.000Z,8.40
2019-04-20T20:33:36.454Z,8.20
2019-04-20T20:35:57.101Z,7.93
2019-04-20T20:38:27.932Z,7.73
2019-04-20T20:40:57.826Z,7.67
2019-04-20T20:43:34.455Z,8.13
2019-04-20T20:46:01.105Z,7.20
2019-04-20T20:48:36.903Z,7.93
2019-04-20T20:51:12.211Z,7.97
2019-04-20T20:53:36.413Z,8.13
2019-04-20T20:56:03.965Z,8.50
2019-04-20T20:58:33.668Z,8.67
2019-04-20T21:00:57.552Z,8.13
2019-04-20T21:03:27.127Z,8.20
2019-04-20T21:05:49.786Z,8.63
2019-04-20T21:08:18.009Z,7.83
2019-04-20T21:10:47.733Z,7.93
2019-04-20T21:13:17.288Z,8.23
2019-04-20T21:15:54.069Z,7.50
2019-04-20T21:18:41.085Z,7.83
2019-04-20T21:21:04.620Z,7.60
2019-04-20T21:23:31.670Z,7.73
2019-04-20T21:26:06.748Z,7.73
2019-04-20T21:28:37.985Z,8.50
2019-04-20T21:31:12.423Z,7.63
2019-04-20T21:33:39.798Z,7.80
2019-04-20T21:36:09.093Z,7.80
2019-04-20T21:38:41.428Z,8.07
2019-04-20T21:41:12.587Z,8.10
2019-04-20T21:43:41.232Z,7.77
2019-04-20T21:46:10.261Z,8.03
2019-04-20T21:48:51.448Z,8.40
2019-04-20T21:51:19.077Z,8.87
2019-04-20T21:53:38.953Z,8.30
2019-04-20T21:56:08.117Z,8.10
2019-04-20T21:58:46.565Z,8.53
2019-04-20T22:01:16.385Z,8.67
2019-04-20T22:03:38.302Z,8.10
2019-04-20T22:06:08.778Z,8.17
2019-04-20T22:08:40.461Z,8.77
2019-04-20T22:11:08.148Z,8.87
2019-04-20T22:13:39.860Z,8.53
2019-04-20T22:16:10.544Z,9.00
2019-04-20T22:18:48.183Z,10.50
2019-04-20T22:21:17.490Z,8.97
2019-04-20T22:23:53.089Z,9.17
2019-04-20T22:26:18.815Z,8.90
2019-04-20T22:28:36.280Z,9.23
2019-04-20T22:31:04.557Z,10.00
2019-04-20T22:33:37.110Z,10.73
2019-04-20T22:36:07.771Z,9.87
2019-04-20T22:38:55.986Z,9.30
2019-04-20T22:41:24.763Z,9.03
2019-04-20T22:43:52.522Z,9.50
2019-04-20T22:46:24.753Z,9.57
2019-04-20T22:48:55.938Z,9.83
2019-04-20T22:51:34.093Z,9.53
2019-04-20T22:54:10.977Z,9.57
2019-04-20T22:56:35.367Z,10.17
2019-04-20T22:59:01.117Z,9.70
2019-04-20T23:01:29.948Z,9.33
2019-04-20T23:03:51.133Z,9.80
2019-04-20T23:06:20.705Z,9.20
2019-04-20T23:08:58.567Z,9.60
2019-04-20T23:11:25.219Z,10.10
2019-04-20T23:13:50.419Z,10.10
2019-04-20T23:16:19.074Z,9.77
2019-04-20T23:18:47.563Z,10.07
2019-04-20T23:21:17.514Z,9.63
2019-04-20T23:23:45.771Z,9.43
2019-04-20T23:26:19.312Z,9.67
2019-04-20T23:28:48.102Z,9.83
2019-04-20T23:31:19.730Z,9.10
2019-04-20T23:33:44.067Z,9.33
2019-04-20T23:36:12.281Z,10.17
2019-04-20T23:38:44.556Z,9.90
2019-04-20T23:41:11.047Z,9.83
2019-04-20T23:43:40.880Z,9.63
2019-04-20T23:46:16.990Z,10.17
2019-04-20T23:49:07.511Z,9.47
2019-04-20T23:51:49.663Z,9.77
2019-04-20T23:54:10.403Z,9.40
2019-04-20T23:56:32.021Z,9.57
2019-04-20T23:59:00.618Z,9.80
